sensor_id;sensor_type;location;lat;lon;timestamp;P1;durP1;ratioP1;P2;durP2;ratioP2
9904;SDS011;4991;43.566;27.820;2023-04-07T00:00:59;8.57;;;5.77;;
9904;SDS011;4991;43.566;27.820;2023-04-07T00:03:25;10.83;;;5.80;;
9904;SDS011;4991;43.566;27.820;2023-04-07T00:05:51;7.00;;;5.07;;
9904;SDS011;4991;43.566;27.820;2023-04-07T00:08:17;6.77;;;5.60;;
9904;SDS011;4991;43.566;27.820;2023-04-07T00:10:42;7.63;;;5.70;;
9904;SDS011;4991;43.566;27.820;2023-04-07T00:13:08;7.13;;;5.23;;
9904;SDS011;4991;43.566;27.820;2023-04-07T00:15:33;8.37;;;5.93;;
9904;SDS011;4991;43.566;27.820;2023-04-07T00:17:59;9.17;;;5.80;;
9904;SDS011;4991;43.566;27.820;2023-04-07T00:20:25;8.77;;;5.33;;
9904;SDS011;4991;43.566;27.820;2023-04-07T00:22:51;14.27;;;6.33;;
9904;SDS011;4991;43.566;27.820;2023-04-07T00:25:16;9.87;;;6.57;;
9904;SDS011;4991;43.566;27.820;2023-04-07T00:27:42;8.57;;;5.73;;
9904;SDS011;4991;43.566;27.820;2023-04-07T00:30:07;9.33;;;6.40;;
9904;SDS011;4991;43.566;27.820;2023-04-07T00:32:33;8.83;;;5.77;;
9904;SDS011;4991;43.566;27.820;2023-04-07T00:34:59;6.37;;;5.07;;
9904;SDS011;4991;43.566;27.820;2023-04-07T00:37:25;9.27;;;5.10;;
9904;SDS011;4991;43.566;27.820;2023-04-07T00:39:51;8.53;;;5.63;;
9904;SDS011;4991;43.566;27.820;2023-04-07T00:42:17;7.40;;;5.70;;
9904;SDS011;4991;43.566;27.820;2023-04-07T00:44:43;7.23;;;5.27;;
9904;SDS011;4991;43.566;27.820;2023-04-07T00:47:09;9.60;;;6.30;;
9904;SDS011;4991;43.566;27.820;2023-04-07T00:49:35;10.67;;;5.70;;
9904;SDS011;4991;43.566;27.820;2023-04-07T00:52:01;7.23;;;5.07;;
9904;SDS011;4991;43.566;27.820;2023-04-07T00:54:27;6.63;;;5.30;;
9904;SDS011;4991;43.566;27.820;2023-04-07T00:56:54;8.60;;;5.80;;
9904;SDS011;4991;43.566;27.820;2023-04-07T00:59:21;8.07;;;5.67;;
9904;SDS011;4991;43.566;27.820;2023-04-07T01:01:54;7.23;;;5.70;;
9904;SDS011;4991;43.566;27.820;2023-04-07T01:07:14;10.47;;;6.57;;
9904;SDS011;4991;43.566;27.820;2023-04-07T01:09:47;8.87;;;5.87;;
9904;SDS011;4991;43.566;27.820;2023-04-07T01:12:30;6.77;;;5.23;;
9904;SDS011;4991;43.566;27.820;2023-04-07T01:14:59;11.43;;;6.27;;
9904;SDS011;4991;43.566;27.820;2023-04-07T01:17:32;9.63;;;6.50;;
9904;SDS011;4991;43.566;27.820;2023-04-07T01:20:04;13.67;;;6.90;;
9904;SDS011;4991;43.566;27.820;2023-04-07T01:22:41;9.13;;;6.13;;
9904;SDS011;4991;43.566;27.820;2023-04-07T01:28:14;9.10;;;6.20;;
9904;SDS011;4991;43.566;27.820;2023-04-07T01:30:51;10.97;;;6.13;;
9904;SDS011;4991;43.566;27.820;2023-04-07T01:33:20;9.07;;;6.33;;
9904;SDS011;4991;43.566;27.820;2023-04-07T01:35:47;16.10;;;6.30;;
9904;SDS011;4991;43.566;27.820;2023-04-07T01:38:15;10.40;;;6.17;;
9904;SDS011;4991;43.566;27.820;2023-04-07T01:40:42;7.80;;;5.57;;
9904;SDS011;4991;43.566;27.820;2023-04-07T01:43:08;9.50;;;6.30;;
9904;SDS011;4991;43.566;27.820;2023-04-07T01:45:36;9.30;;;6.60;;
9904;SDS011;4991;43.566;27.820;2023-04-07T01:48:05;7.70;;;5.77;;
9904;SDS011;4991;43.566;27.820;2023-04-07T01:50:32;9.87;;;6.07;;
9904;SDS011;4991;43.566;27.820;2023-04-07T01:52:59;8.53;;;6.60;;
9904;SDS011;4991;43.566;27.820;2023-04-07T01:55:25;7.57;;;5.93;;
9904;SDS011;4991;43.566;27.820;2023-04-07T01:57:54;10.13;;;6.27;;
9904;SDS011;4991;43.566;27.820;2023-04-07T02:00:20;7.73;;;6.17;;
9904;SDS011;4991;43.566;27.820;2023-04-07T02:02:45;9.17;;;6.00;;
9904;SDS011;4991;43.566;27.820;2023-04-07T02:05:17;7.93;;;5.80;;
9904;SDS011;4991;43.566;27.820;2023-04-07T02:10:26;9.13;;;6.53;;
9904;SDS011;4991;43.566;27.820;2023-04-07T02:12:54;8.40;;;5.40;;
9904;SDS011;4991;43.566;27.820;2023-04-07T02:15:22;8.40;;;5.97;;
9904;SDS011;4991;43.566;27.820;2023-04-07T02:17:51;9.80;;;6.20;;
9904;SDS011;4991;43.566;27.820;2023-04-07T02:20:18;9.23;;;6.00;;
9904;SDS011;4991;43.566;27.820;2023-04-07T02:22:47;10.43;;;5.97;;
9904;SDS011;4991;43.566;27.820;2023-04-07T02:25:29;9.57;;;6.70;;
9904;SDS011;4991;43.566;27.820;2023-04-07T02:27:57;10.23;;;6.80;;
9904;SDS011;4991;43.566;27.820;2023-04-07T02:30:24;9.47;;;6.87;;
9904;SDS011;4991;43.566;27.820;2023-04-07T02:32:50;12.90;;;6.43;;
9904;SDS011;4991;43.566;27.820;2023-04-07T02:35:16;9.63;;;6.73;;
9904;SDS011;4991;43.566;27.820;2023-04-07T02:37:45;10.03;;;6.80;;
9904;SDS011;4991;43.566;27.820;2023-04-07T02:40:11;10.13;;;7.33;;
9904;SDS011;4991;43.566;27.820;2023-04-07T02:42:37;11.17;;;7.07;;
9904;SDS011;4991;43.566;27.820;2023-04-07T02:45:04;7.90;;;6.20;;
9904;SDS011;4991;43.566;27.820;2023-04-07T02:47:31;9.77;;;7.07;;
9904;SDS011;4991;43.566;27.820;2023-04-07T02:49:57;8.63;;;6.67;;
9904;SDS011;4991;43.566;27.820;2023-04-07T02:52:23;11.03;;;6.77;;
9904;SDS011;4991;43.566;27.820;2023-04-07T02:54:49;10.63;;;6.97;;
9904;SDS011;4991;43.566;27.820;2023-04-07T02:57:15;9.07;;;6.80;;
9904;SDS011;4991;43.566;27.820;2023-04-07T02:59:41;12.20;;;7.70;;
9904;SDS011;4991;43.566;27.820;2023-04-07T03:02:06;12.27;;;7.50;;
9904;SDS011;4991;43.566;27.820;2023-04-07T03:04:32;9.40;;;7.07;;
9904;SDS011;4991;43.566;27.820;2023-04-07T03:06:58;11.87;;;6.93;;
9904;SDS011;4991;43.566;27.820;2023-04-07T03:09:24;10.50;;;6.90;;
9904;SDS011;4991;43.566;27.820;2023-04-07T03:11:49;11.63;;;7.50;;
9904;SDS011;4991;43.566;27.820;2023-04-07T03:14:15;14.00;;;7.70;;
9904;SDS011;4991;43.566;27.820;2023-04-07T03:16:41;10.13;;;7.27;;
9904;SDS011;4991;43.566;27.820;2023-04-07T03:19:07;13.67;;;7.63;;
9904;SDS011;4991;43.566;27.820;2023-04-07T03:21:33;8.63;;;7.23;;
9904;SDS011;4991;43.566;27.820;2023-04-07T03:24:00;13.17;;;7.63;;
9904;SDS011;4991;43.566;27.820;2023-04-07T03:26:25;11.80;;;7.23;;
9904;SDS011;4991;43.566;27.820;2023-04-07T03:28:51;12.43;;;7.83;;
9904;SDS011;4991;43.566;27.820;2023-04-07T03:31:17;10.10;;;7.23;;
9904;SDS011;4991;43.566;27.820;2023-04-07T03:33:43;16.90;;;7.13;;
9904;SDS011;4991;43.566;27.820;2023-04-07T03:36:09;12.83;;;7.67;;
9904;SDS011;4991;43.566;27.820;2023-04-07T03:38:35;8.40;;;6.43;;
9904;SDS011;4991;43.566;27.820;2023-04-07T03:41:01;11.83;;;7.73;;
9904;SDS011;4991;43.566;27.820;2023-04-07T03:43:27;13.53;;;8.53;;
9904;SDS011;4991;43.566;27.820;2023-04-07T03:45:52;9.37;;;7.43;;
9904;SDS011;4991;43.566;27.820;2023-04-07T03:48:18;9.13;;;7.40;;
9904;SDS011;4991;43.566;27.820;2023-04-07T03:50:45;11.27;;;8.47;;
9904;SDS011;4991;43.566;27.820;2023-04-07T03:53:10;12.70;;;7.97;;
9904;SDS011;4991;43.566;27.820;2023-04-07T03:55:39;11.37;;;7.77;;
9904;SDS011;4991;43.566;27.820;2023-04-07T03:58:05;11.83;;;8.50;;
9904;SDS011;4991;43.566;27.820;2023-04-07T04:00:31;12.13;;;8.23;;
9904;SDS011;4991;43.566;27.820;2023-04-07T04:02:58;16.77;;;9.30;;
9904;SDS011;4991;43.566;27.820;2023-04-07T04:05:24;12.33;;;8.40;;
9904;SDS011;4991;43.566;27.820;2023-04-07T04:07:49;15.70;;;9.47;;
9904;SDS011;4991;43.566;27.820;2023-04-07T04:10:17;12.33;;;8.40;;
9904;SDS011;4991;43.566;27.820;2023-04-07T04:12:43;15.57;;;8.77;;
9904;SDS011;4991;43.566;27.820;2023-04-07T04:15:09;15.83;;;8.93;;
9904;SDS011;4991;43.566;27.820;2023-04-07T04:17:35;13.07;;;9.33;;
9904;SDS011;4991;43.566;27.820;2023-04-07T04:20:02;12.83;;;8.97;;
9904;SDS011;4991;43.566;27.820;2023-04-07T04:22:28;13.17;;;8.83;;
9904;SDS011;4991;43.566;27.820;2023-04-07T04:24:53;14.20;;;8.97;;
9904;SDS011;4991;43.566;27.820;2023-04-07T04:27:19;11.00;;;8.77;;
9904;SDS011;4991;43.566;27.820;2023-04-07T04:29:45;13.30;;;8.87;;
9904;SDS011;4991;43.566;27.820;2023-04-07T04:32:12;11.67;;;8.83;;
9904;SDS011;4991;43.566;27.820;2023-04-07T04:34:38;12.07;;;8.13;;
9904;SDS011;4991;43.566;27.820;2023-04-07T04:37:04;13.33;;;8.73;;
9904;SDS011;4991;43.566;27.820;2023-04-07T04:39:29;14.03;;;8.87;;
9904;SDS011;4991;43.566;27.820;2023-04-07T04:41:55;12.97;;;9.13;;
9904;SDS011;4991;43.566;27.820;2023-04-07T04:44:21;14.87;;;8.73;;
9904;SDS011;4991;43.566;27.820;2023-04-07T04:46:47;15.47;;;9.90;;
9904;SDS011;4991;43.566;27.820;2023-04-07T04:49:13;15.53;;;9.17;;
9904;SDS011;4991;43.566;27.820;2023-04-07T04:51:40;15.23;;;9.23;;
9904;SDS011;4991;43.566;27.820;2023-04-07T04:54:06;14.23;;;9.37;;
9904;SDS011;4991;43.566;27.820;2023-04-07T04:56:32;15.60;;;9.70;;
9904;SDS011;4991;43.566;27.820;2023-04-07T04:58:58;17.70;;;9.17;;
9904;SDS011;4991;43.566;27.820;2023-04-07T05:01:23;15.17;;;9.60;;
9904;SDS011;4991;43.566;27.820;2023-04-07T05:03:49;16.17;;;10.13;;
9904;SDS011;4991;43.566;27.820;2023-04-07T05:06:15;15.77;;;10.40;;
9904;SDS011;4991;43.566;27.820;2023-04-07T05:08:40;12.87;;;9.20;;
9904;SDS011;4991;43.566;27.820;2023-04-07T05:11:06;15.67;;;8.43;;
9904;SDS011;4991;43.566;27.820;2023-04-07T05:13:31;15.53;;;9.60;;
9904;SDS011;4991;43.566;27.820;2023-04-07T05:15:57;18.17;;;10.90;;
9904;SDS011;4991;43.566;27.820;2023-04-07T05:18:23;17.33;;;10.50;;
9904;SDS011;4991;43.566;27.820;2023-04-07T05:20:48;15.83;;;10.03;;
9904;SDS011;4991;43.566;27.820;2023-04-07T05:23:14;15.77;;;8.67;;
9904;SDS011;4991;43.566;27.820;2023-04-07T05:25:40;16.07;;;10.23;;
9904;SDS011;4991;43.566;27.820;2023-04-07T05:28:05;15.03;;;9.10;;
9904;SDS011;4991;43.566;27.820;2023-04-07T05:30:32;15.03;;;9.80;;
9904;SDS011;4991;43.566;27.820;2023-04-07T05:32:58;15.63;;;9.07;;
9904;SDS011;4991;43.566;27.820;2023-04-07T05:35:24;15.40;;;10.00;;
9904;SDS011;4991;43.566;27.820;2023-04-07T05:37:50;11.47;;;9.13;;
9904;SDS011;4991;43.566;27.820;2023-04-07T05:40:16;14.20;;;10.40;;
9904;SDS011;4991;43.566;27.820;2023-04-07T05:42:42;20.43;;;9.57;;
9904;SDS011;4991;43.566;27.820;2023-04-07T05:45:08;16.60;;;9.60;;
9904;SDS011;4991;43.566;27.820;2023-04-07T05:47:34;15.40;;;10.80;;
9904;SDS011;4991;43.566;27.820;2023-04-07T05:50:00;15.13;;;10.23;;
9904;SDS011;4991;43.566;27.820;2023-04-07T05:52:26;12.80;;;8.27;;
9904;SDS011;4991;43.566;27.820;2023-04-07T05:54:52;12.77;;;8.93;;
9904;SDS011;4991;43.566;27.820;2023-04-07T05:57:17;12.33;;;8.40;;
9904;SDS011;4991;43.566;27.820;2023-04-07T05:59:43;12.00;;;8.77;;
9904;SDS011;4991;43.566;27.820;2023-04-07T06:02:08;13.40;;;9.00;;
9904;SDS011;4991;43.566;27.820;2023-04-07T06:04:34;14.83;;;9.87;;
9904;SDS011;4991;43.566;27.820;2023-04-07T06:07:01;15.73;;;10.60;;
9904;SDS011;4991;43.566;27.820;2023-04-07T06:09:32;14.93;;;9.00;;
9904;SDS011;4991;43.566;27.820;2023-04-07T06:11:58;15.50;;;9.10;;
9904;SDS011;4991;43.566;27.820;2023-04-07T06:14:25;13.80;;;9.43;;
9904;SDS011;4991;43.566;27.820;2023-04-07T06:16:52;10.97;;;8.63;;
9904;SDS011;4991;43.566;27.820;2023-04-07T06:19:17;12.13;;;9.17;;
9904;SDS011;4991;43.566;27.820;2023-04-07T06:21:43;13.27;;;9.47;;
9904;SDS011;4991;43.566;27.820;2023-04-07T06:24:08;12.23;;;8.97;;
9904;SDS011;4991;43.566;27.820;2023-04-07T06:26:34;12.87;;;9.30;;
9904;SDS011;4991;43.566;27.820;2023-04-07T06:29:00;12.10;;;8.93;;
9904;SDS011;4991;43.566;27.820;2023-04-07T06:31:26;13.30;;;9.83;;
9904;SDS011;4991;43.566;27.820;2023-04-07T06:33:52;11.13;;;9.20;;
9904;SDS011;4991;43.566;27.820;2023-04-07T06:36:18;13.30;;;9.30;;
9904;SDS011;4991;43.566;27.820;2023-04-07T06:38:45;12.77;;;8.43;;
9904;SDS011;4991;43.566;27.820;2023-04-07T06:41:11;14.67;;;10.40;;
9904;SDS011;4991;43.566;27.820;2023-04-07T06:43:41;14.30;;;9.53;;
9904;SDS011;4991;43.566;27.820;2023-04-07T06:46:07;13.27;;;8.60;;
9904;SDS011;4991;43.566;27.820;2023-04-07T06:48:34;13.43;;;9.30;;
9904;SDS011;4991;43.566;27.820;2023-04-07T06:50:59;12.90;;;9.07;;
9904;SDS011;4991;43.566;27.820;2023-04-07T06:53:25;15.23;;;10.10;;
9904;SDS011;4991;43.566;27.820;2023-04-07T06:55:50;14.57;;;10.00;;
9904;SDS011;4991;43.566;27.820;2023-04-07T06:58:16;14.67;;;9.40;;
9904;SDS011;4991;43.566;27.820;2023-04-07T07:00:42;15.63;;;9.37;;
9904;SDS011;4991;43.566;27.820;2023-04-07T07:03:07;14.43;;;9.73;;
9904;SDS011;4991;43.566;27.820;2023-04-07T07:05:33;19.07;;;10.87;;
9904;SDS011;4991;43.566;27.820;2023-04-07T07:07:58;16.50;;;10.53;;
9904;SDS011;4991;43.566;27.820;2023-04-07T07:10:24;11.50;;;8.90;;
9904;SDS011;4991;43.566;27.820;2023-04-07T07:12:50;13.60;;;9.50;;
9904;SDS011;4991;43.566;27.820;2023-04-07T07:15:16;17.53;;;11.27;;
9904;SDS011;4991;43.566;27.820;2023-04-07T07:17:42;12.97;;;8.90;;
9904;SDS011;4991;43.566;27.820;2023-04-07T07:20:08;12.23;;;9.73;;
9904;SDS011;4991;43.566;27.820;2023-04-07T07:22:34;15.67;;;10.30;;
9904;SDS011;4991;43.566;27.820;2023-04-07T07:25:00;17.30;;;10.50;;
9904;SDS011;4991;43.566;27.820;2023-04-07T07:27:25;13.27;;;10.00;;
9904;SDS011;4991;43.566;27.820;2023-04-07T07:29:51;12.73;;;9.30;;
9904;SDS011;4991;43.566;27.820;2023-04-07T07:32:16;14.73;;;9.83;;
9904;SDS011;4991;43.566;27.820;2023-04-07T07:34:43;12.83;;;9.10;;
9904;SDS011;4991;43.566;27.820;2023-04-07T07:37:09;12.27;;;9.50;;
9904;SDS011;4991;43.566;27.820;2023-04-07T07:39:35;13.63;;;10.10;;
9904;SDS011;4991;43.566;27.820;2023-04-07T07:42:00;12.57;;;10.30;;
9904;SDS011;4991;43.566;27.820;2023-04-07T07:44:26;13.07;;;9.50;;
9904;SDS011;4991;43.566;27.820;2023-04-07T07:46:52;13.20;;;10.03;;
9904;SDS011;4991;43.566;27.820;2023-04-07T07:49:17;20.60;;;10.43;;
9904;SDS011;4991;43.566;27.820;2023-04-07T07:51:43;11.67;;;9.57;;
9904;SDS011;4991;43.566;27.820;2023-04-07T07:54:10;11.53;;;9.63;;
9904;SDS011;4991;43.566;27.820;2023-04-07T07:56:36;13.47;;;10.13;;
9904;SDS011;4991;43.566;27.820;2023-04-07T07:59:02;13.53;;;9.83;;
9904;SDS011;4991;43.566;27.820;2023-04-07T08:01:30;17.67;;;9.93;;
9904;SDS011;4991;43.566;27.820;2023-04-07T08:03:56;14.53;;;9.47;;
9904;SDS011;4991;43.566;27.820;2023-04-07T08:06:21;10.90;;;9.13;;
9904;SDS011;4991;43.566;27.820;2023-04-07T08:08:47;14.13;;;9.47;;
9904;SDS011;4991;43.566;27.820;2023-04-07T08:11:13;11.60;;;9.17;;
9904;SDS011;4991;43.566;27.820;2023-04-07T08:13:41;12.73;;;9.67;;
9904;SDS011;4991;43.566;27.820;2023-04-07T08:16:09;15.60;;;10.10;;
9904;SDS011;4991;43.566;27.820;2023-04-07T08:18:35;12.00;;;9.27;;
9904;SDS011;4991;43.566;27.820;2023-04-07T08:21:02;11.67;;;8.70;;
9904;SDS011;4991;43.566;27.820;2023-04-07T08:23:28;13.10;;;10.07;;
9904;SDS011;4991;43.566;27.820;2023-04-07T08:25:54;14.37;;;9.83;;
9904;SDS011;4991;43.566;27.820;2023-04-07T08:28:20;13.80;;;9.07;;
9904;SDS011;4991;43.566;27.820;2023-04-07T08:30:47;13.27;;;8.70;;
9904;SDS011;4991;43.566;27.820;2023-04-07T08:33:12;12.27;;;9.93;;
9904;SDS011;4991;43.566;27.820;2023-04-07T08:35:38;15.37;;;10.87;;
9904;SDS011;4991;43.566;27.820;2023-04-07T08:38:04;10.67;;;9.30;;
9904;SDS011;4991;43.566;27.820;2023-04-07T08:40:30;12.87;;;8.67;;
9904;SDS011;4991;43.566;27.820;2023-04-07T08:42:56;16.70;;;9.60;;
9904;SDS011;4991;43.566;27.820;2023-04-07T08:45:24;11.20;;;9.60;;
9904;SDS011;4991;43.566;27.820;2023-04-07T08:47:53;12.37;;;8.93;;
9904;SDS011;4991;43.566;27.820;2023-04-07T08:50:22;12.30;;;9.67;;
9904;SDS011;4991;43.566;27.820;2023-04-07T08:52:55;11.57;;;8.97;;
9904;SDS011;4991;43.566;27.820;2023-04-07T08:55:24;14.23;;;9.23;;
9904;SDS011;4991;43.566;27.820;2023-04-07T08:57:50;11.97;;;9.57;;
9904;SDS011;4991;43.566;27.820;2023-04-07T09:00:17;13.57;;;9.20;;
9904;SDS011;4991;43.566;27.820;2023-04-07T09:02:43;13.47;;;9.00;;
9904;SDS011;4991;43.566;27.820;2023-04-07T09:05:10;12.20;;;9.07;;
9904;SDS011;4991;43.566;27.820;2023-04-07T09:07:37;18.27;;;9.53;;
9904;SDS011;4991;43.566;27.820;2023-04-07T09:10:12;13.40;;;9.20;;
9904;SDS011;4991;43.566;27.820;2023-04-07T09:12:38;12.93;;;10.33;;
9904;SDS011;4991;43.566;27.820;2023-04-07T09:15:05;11.93;;;10.10;;
9904;SDS011;4991;43.566;27.820;2023-04-07T09:17:31;11.17;;;9.27;;
9904;SDS011;4991;43.566;27.820;2023-04-07T09:19:57;15.00;;;9.53;;
9904;SDS011;4991;43.566;27.820;2023-04-07T09:22:35;12.17;;;8.67;;
9904;SDS011;4991;43.566;27.820;2023-04-07T09:25:09;12.93;;;8.53;;
9904;SDS011;4991;43.566;27.820;2023-04-07T09:27:38;14.20;;;9.60;;
9904;SDS011;4991;43.566;27.820;2023-04-07T09:30:10;11.97;;;8.53;;
9904;SDS011;4991;43.566;27.820;2023-04-07T09:32:41;10.83;;;8.60;;
9904;SDS011;4991;43.566;27.820;2023-04-07T09:35:07;13.93;;;8.50;;
9904;SDS011;4991;43.566;27.820;2023-04-07T09:37:33;9.33;;;6.63;;
9904;SDS011;4991;43.566;27.820;2023-04-07T09:39:58;13.13;;;8.50;;
9904;SDS011;4991;43.566;27.820;2023-04-07T09:42:25;12.70;;;8.20;;
9904;SDS011;4991;43.566;27.820;2023-04-07T09:44:56;10.90;;;8.77;;
9904;SDS011;4991;43.566;27.820;2023-04-07T09:47:26;11.50;;;7.63;;
9904;SDS011;4991;43.566;27.820;2023-04-07T09:49:56;13.23;;;7.73;;
9904;SDS011;4991;43.566;27.820;2023-04-07T09:53:05;12.17;;;7.83;;
9904;SDS011;4991;43.566;27.820;2023-04-07T09:55:19;8.90;;;7.60;;
9904;SDS011;4991;43.566;27.820;2023-04-07T09:57:49;9.53;;;7.57;;
9904;SDS011;4991;43.566;27.820;2023-04-07T10:00:15;10.70;;;7.77;;
9904;SDS011;4991;43.566;27.820;2023-04-07T10:02:41;10.57;;;8.23;;
9904;SDS011;4991;43.566;27.820;2023-04-07T10:05:08;11.00;;;8.10;;
9904;SDS011;4991;43.566;27.820;2023-04-07T10:07:35;10.60;;;7.37;;
9904;SDS011;4991;43.566;27.820;2023-04-07T10:10:04;11.33;;;7.63;;
9904;SDS011;4991;43.566;27.820;2023-04-07T10:12:32;10.83;;;8.10;;
9904;SDS011;4991;43.566;27.820;2023-04-07T10:14:59;14.53;;;8.33;;
9904;SDS011;4991;43.566;27.820;2023-04-07T10:17:26;12.00;;;8.37;;
9904;SDS011;4991;43.566;27.820;2023-04-07T10:19:53;9.10;;;8.10;;
9904;SDS011;4991;43.566;27.820;2023-04-07T10:22:22;10.50;;;8.37;;
9904;SDS011;4991;43.566;27.820;2023-04-07T10:27:59;11.57;;;8.57;;
9904;SDS011;4991;43.566;27.820;2023-04-07T10:30:31;10.97;;;7.30;;
9904;SDS011;4991;43.566;27.820;2023-04-07T10:32:58;11.27;;;8.03;;
9904;SDS011;4991;43.566;27.820;2023-04-07T10:35:24;13.17;;;7.50;;
9904;SDS011;4991;43.566;27.820;2023-04-07T10:40:38;8.37;;;6.90;;
9904;SDS011;4991;43.566;27.820;2023-04-07T10:43:05;10.27;;;7.50;;
9904;SDS011;4991;43.566;27.820;2023-04-07T10:48:17;10.80;;;7.10;;
9904;SDS011;4991;43.566;27.820;2023-04-07T10:50:47;10.23;;;7.40;;
9904;SDS011;4991;43.566;27.820;2023-04-07T10:53:36;10.07;;;7.10;;
9904;SDS011;4991;43.566;27.820;2023-04-07T10:56:02;10.27;;;7.30;;
9904;SDS011;4991;43.566;27.820;2023-04-07T10:58:30;8.73;;;7.53;;
9904;SDS011;4991;43.566;27.820;2023-04-07T11:03:26;7.80;;;6.70;;
9904;SDS011;4991;43.566;27.820;2023-04-07T11:08:48;12.93;;;7.57;;
9904;SDS011;4991;43.566;27.820;2023-04-07T11:11:34;8.67;;;7.00;;
9904;SDS011;4991;43.566;27.820;2023-04-07T11:14:04;13.37;;;7.87;;
9904;SDS011;4991;43.566;27.820;2023-04-07T11:16:37;9.97;;;7.53;;
9904;SDS011;4991;43.566;27.820;2023-04-07T11:19:05;12.87;;;8.33;;
9904;SDS011;4991;43.566;27.820;2023-04-07T11:21:31;13.10;;;8.37;;
9904;SDS011;4991;43.566;27.820;2023-04-07T11:23:56;16.77;;;9.57;;
9904;SDS011;4991;43.566;27.820;2023-04-07T11:26:22;12.00;;;7.90;;
9904;SDS011;4991;43.566;27.820;2023-04-07T11:28:49;10.03;;;6.70;;
9904;SDS011;4991;43.566;27.820;2023-04-07T11:31:29;10.00;;;7.10;;
9904;SDS011;4991;43.566;27.820;2023-04-07T11:34:04;12.50;;;7.30;;
9904;SDS011;4991;43.566;27.820;2023-04-07T11:36:33;10.97;;;7.43;;
9904;SDS011;4991;43.566;27.820;2023-04-07T11:39:02;9.83;;;7.30;;
9904;SDS011;4991;43.566;27.820;2023-04-07T11:41:28;13.40;;;7.83;;
9904;SDS011;4991;43.566;27.820;2023-04-07T11:44:09;14.60;;;8.30;;
9904;SDS011;4991;43.566;27.820;2023-04-07T11:46:36;10.57;;;7.80;;
9904;SDS011;4991;43.566;27.820;2023-04-07T11:49:26;9.57;;;7.57;;
9904;SDS011;4991;43.566;27.820;2023-04-07T11:52:05;9.83;;;7.90;;
9904;SDS011;4991;43.566;27.820;2023-04-07T11:54:46;9.30;;;7.73;;
9904;SDS011;4991;43.566;27.820;2023-04-07T11:57:12;12.90;;;7.90;;
9904;SDS011;4991;43.566;27.820;2023-04-07T11:59:39;8.60;;;7.20;;
9904;SDS011;4991;43.566;27.820;2023-04-07T12:04:34;9.00;;;7.23;;
9904;SDS011;4991;43.566;27.820;2023-04-07T12:07:08;8.50;;;7.20;;
9904;SDS011;4991;43.566;27.820;2023-04-07T12:09:35;11.40;;;8.20;;
9904;SDS011;4991;43.566;27.820;2023-04-07T12:12:02;11.83;;;8.03;;
9904;SDS011;4991;43.566;27.820;2023-04-07T12:14:33;11.83;;;8.30;;
9904;SDS011;4991;43.566;27.820;2023-04-07T12:16:58;8.83;;;6.80;;
9904;SDS011;4991;43.566;27.820;2023-04-07T12:19:27;9.87;;;7.47;;
9904;SDS011;4991;43.566;27.820;2023-04-07T12:21:54;10.60;;;7.73;;
9904;SDS011;4991;43.566;27.820;2023-04-07T12:24:21;10.20;;;7.40;;
9904;SDS011;4991;43.566;27.820;2023-04-07T12:26:47;9.47;;;8.27;;
9904;SDS011;4991;43.566;27.820;2023-04-07T12:29:13;10.00;;;7.90;;
9904;SDS011;4991;43.566;27.820;2023-04-07T12:31:40;11.43;;;7.70;;
9904;SDS011;4991;43.566;27.820;2023-04-07T12:34:06;11.40;;;8.27;;
9904;SDS011;4991;43.566;27.820;2023-04-07T12:36:32;9.97;;;7.83;;
9904;SDS011;4991;43.566;27.820;2023-04-07T12:38:58;14.03;;;8.63;;
9904;SDS011;4991;43.566;27.820;2023-04-07T12:41:24;9.90;;;8.30;;
9904;SDS011;4991;43.566;27.820;2023-04-07T12:43:50;10.13;;;7.67;;
9904;SDS011;4991;43.566;27.820;2023-04-07T12:46:15;9.23;;;7.23;;
9904;SDS011;4991;43.566;27.820;2023-04-07T12:48:41;15.03;;;7.53;;
9904;SDS011;4991;43.566;27.820;2023-04-07T12:51:07;9.53;;;7.40;;
9904;SDS011;4991;43.566;27.820;2023-04-07T12:53:32;10.07;;;7.17;;
9904;SDS011;4991;43.566;27.820;2023-04-07T12:55:58;10.30;;;8.23;;
9904;SDS011;4991;43.566;27.820;2023-04-07T12:58:24;9.37;;;6.83;;
9904;SDS011;4991;43.566;27.820;2023-04-07T13:00:51;8.80;;;7.43;;
9904;SDS011;4991;43.566;27.820;2023-04-07T13:03:17;12.47;;;7.30;;
9904;SDS011;4991;43.566;27.820;2023-04-07T13:05:43;8.63;;;6.77;;
9904;SDS011;4991;43.566;27.820;2023-04-07T13:08:09;10.03;;;7.53;;
9904;SDS011;4991;43.566;27.820;2023-04-07T13:10:35;9.80;;;8.13;;
9904;SDS011;4991;43.566;27.820;2023-04-07T13:13:00;14.23;;;8.97;;
9904;SDS011;4991;43.566;27.820;2023-04-07T13:15:26;14.60;;;9.23;;
9904;SDS011;4991;43.566;27.820;2023-04-07T13:17:52;9.97;;;8.23;;
9904;SDS011;4991;43.566;27.820;2023-04-07T13:20:18;10.17;;;7.80;;
9904;SDS011;4991;43.566;27.820;2023-04-07T13:22:44;14.73;;;8.37;;
9904;SDS011;4991;43.566;27.820;2023-04-07T13:25:10;10.97;;;8.17;;
9904;SDS011;4991;43.566;27.820;2023-04-07T13:27:36;12.90;;;7.80;;
9904;SDS011;4991;43.566;27.820;2023-04-07T13:30:02;10.37;;;7.10;;
9904;SDS011;4991;43.566;27.820;2023-04-07T13:32:28;8.63;;;7.03;;
9904;SDS011;4991;43.566;27.820;2023-04-07T13:34:54;11.03;;;7.80;;
9904;SDS011;4991;43.566;27.820;2023-04-07T13:37:22;12.63;;;7.87;;
9904;SDS011;4991;43.566;27.820;2023-04-07T13:39:47;12.13;;;7.57;;
9904;SDS011;4991;43.566;27.820;2023-04-07T13:42:13;11.47;;;7.43;;
9904;SDS011;4991;43.566;27.820;2023-04-07T13:44:42;14.77;;;8.30;;
9904;SDS011;4991;43.566;27.820;2023-04-07T13:47:12;9.73;;;7.23;;
9904;SDS011;4991;43.566;27.820;2023-04-07T13:49:43;10.07;;;7.23;;
9904;SDS011;4991;43.566;27.820;2023-04-07T13:52:10;11.23;;;8.03;;
9904;SDS011;4991;43.566;27.820;2023-04-07T13:54:36;12.97;;;8.87;;
9904;SDS011;4991;43.566;27.820;2023-04-07T13:57:02;17.13;;;8.97;;
9904;SDS011;4991;43.566;27.820;2023-04-07T13:59:28;13.10;;;9.87;;
9904;SDS011;4991;43.566;27.820;2023-04-07T14:01:54;15.50;;;9.23;;
9904;SDS011;4991;43.566;27.820;2023-04-07T14:04:19;11.83;;;9.13;;
9904;SDS011;4991;43.566;27.820;2023-04-07T14:06:45;15.10;;;9.53;;
9904;SDS011;4991;43.566;27.820;2023-04-07T14:09:11;19.93;;;13.43;;
9904;SDS011;4991;43.566;27.820;2023-04-07T14:11:36;14.23;;;10.73;;
9904;SDS011;4991;43.566;27.820;2023-04-07T14:14:02;14.57;;;10.07;;
9904;SDS011;4991;43.566;27.820;2023-04-07T14:16:27;9.40;;;8.43;;
9904;SDS011;4991;43.566;27.820;2023-04-07T14:18:53;18.50;;;10.47;;
9904;SDS011;4991;43.566;27.820;2023-04-07T14:21:20;14.20;;;9.90;;
9904;SDS011;4991;43.566;27.820;2023-04-07T14:23:46;9.47;;;8.50;;
9904;SDS011;4991;43.566;27.820;2023-04-07T14:26:11;10.10;;;7.33;;
9904;SDS011;4991;43.566;27.820;2023-04-07T14:28:37;13.00;;;8.50;;
9904;SDS011;4991;43.566;27.820;2023-04-07T14:31:03;11.33;;;8.43;;
9904;SDS011;4991;43.566;27.820;2023-04-07T14:33:29;13.10;;;8.57;;
9904;SDS011;4991;43.566;27.820;2023-04-07T14:35:54;14.77;;;9.77;;
9904;SDS011;4991;43.566;27.820;2023-04-07T14:38:20;28.87;;;13.53;;
9904;SDS011;4991;43.566;27.820;2023-04-07T14:40:48;17.67;;;10.67;;
9904;SDS011;4991;43.566;27.820;2023-04-07T14:43:14;14.83;;;11.27;;
9904;SDS011;4991;43.566;27.820;2023-04-07T14:45:40;16.27;;;11.20;;
9904;SDS011;4991;43.566;27.820;2023-04-07T14:48:05;17.70;;;9.70;;
9904;SDS011;4991;43.566;27.820;2023-04-07T14:50:31;19.57;;;12.03;;
9904;SDS011;4991;43.566;27.820;2023-04-07T14:52:58;17.33;;;9.70;;
9904;SDS011;4991;43.566;27.820;2023-04-07T14:55:24;30.33;;;15.43;;
9904;SDS011;4991;43.566;27.820;2023-04-07T14:57:50;15.63;;;10.93;;
9904;SDS011;4991;43.566;27.820;2023-04-07T15:00:16;24.27;;;14.37;;
9904;SDS011;4991;43.566;27.820;2023-04-07T15:02:41;24.33;;;15.47;;
9904;SDS011;4991;43.566;27.820;2023-04-07T15:05:07;25.43;;;14.17;;
9904;SDS011;4991;43.566;27.820;2023-04-07T15:07:33;15.93;;;11.07;;
9904;SDS011;4991;43.566;27.820;2023-04-07T15:09:59;22.20;;;15.00;;
9904;SDS011;4991;43.566;27.820;2023-04-07T15:12:25;22.33;;;15.13;;